createdAt,value
2022-09-26T00:01:43.994Z,5.00
2022-09-26T00:04:22.301Z,4.65
2022-09-26T00:06:52.743Z,4.13
2022-09-26T00:09:22.138Z,3.90
2022-09-26T00:11:52.783Z,3.90
2022-09-26T00:14:23.698Z,3.90
2022-09-26T00:16:52.346Z,3.75
2022-09-26T00:19:21.702Z,3.42
2022-09-26T00:21:50.505Z,3.15
2022-09-26T00:24:19.547Z,3.40
2022-09-26T00:26:48.084Z,3.15
2022-09-26T00:29:18.285Z,3.30
2022-09-26T00:31:49.139Z,3.10
2022-09-26T00:34:19.483Z,3.45
2022-09-26T00:36:48.077Z,3.25
2022-09-26T00:39:17.437Z,3.33
2022-09-26T00:41:46.535Z,3.30
2022-09-26T00:44:45.105Z,3.40
2022-09-26T00:47:33.718Z,3.40
2022-09-26T00:50:06.180Z,3.15
2022-09-26T00:52:38.506Z,4.35
2022-09-26T00:55:11.650Z,4.28
2022-09-26T00:57:45.597Z,3.60
2022-09-26T01:00:16.279Z,4.00
2022-09-26T01:02:47.938Z,3.83
2022-09-26T01:05:19.820Z,4.10
2022-09-26T01:07:49.459Z,3.70
2022-09-26T01:10:18.059Z,3.47
2022-09-26T01:12:46.721Z,3.58
2022-09-26T01:15:16.667Z,3.92
2022-09-26T01:17:46.831Z,3.47
2022-09-26T01:20:30.349Z,3.80
2022-09-26T01:23:35.443Z,4.30
2022-09-26T01:26:35.887Z,3.80
2022-09-26T01:29:40.237Z,3.88
2022-09-26T01:32:37.676Z,4.40
2022-09-26T01:35:13.130Z,4.47
2022-09-26T01:37:52.909Z,3.97
2022-09-26T01:40:32.667Z,3.70
2022-09-26T01:43:09.284Z,3.67
2022-09-26T01:45:47.766Z,4.00
2022-09-26T01:48:22.731Z,4.13
2022-09-26T01:50:54.558Z,3.85
2022-09-26T01:53:26.972Z,3.83
2022-09-26T01:56:00.527Z,3.90
2022-09-26T01:58:34.378Z,3.60
2022-09-26T02:01:10.637Z,3.45
2022-09-26T02:03:47.468Z,3.75
2022-09-26T02:06:20.212Z,3.85
2022-09-26T02:08:54.043Z,4.05
2022-09-26T02:11:25.610Z,3.25
2022-09-26T02:14:02.554Z,3.28
2022-09-26T02:16:37.284Z,3.75
2022-09-26T02:19:12.228Z,3.58
2022-09-26T02:21:43.458Z,3.80
2022-09-26T02:24:12.012Z,3.47
2022-09-26T02:26:42.355Z,3.03
2022-09-26T02:29:13.214Z,3.35
2022-09-26T02:31:50.746Z,4.00
2022-09-26T02:34:20.697Z,3.50
2022-09-26T02:36:50.049Z,4.05
2022-09-26T02:39:18.960Z,3.22
2022-09-26T02:41:51.953Z,3.53
2022-09-26T02:44:46.643Z,3.85
2022-09-26T02:47:55.144Z,3.60
2022-09-26T02:50:40.510Z,3.97
2022-09-26T02:53:22.479Z,3.90
2022-09-26T02:56:04.847Z,4.03
2022-09-26T02:58:46.705Z,3.45
2022-09-26T03:01:23.385Z,3.85
2022-09-26T03:03:54.833Z,3.50
2022-09-26T03:06:31.462Z,4.00
2022-09-26T03:09:01.053Z,4.05
2022-09-26T03:11:31.553Z,3.58
2022-09-26T03:14:01.105Z,4.38
2022-09-26T03:16:35.301Z,3.53
2022-09-26T03:19:09.182Z,4.10
2022-09-26T03:21:39.176Z,4.40
2022-09-26T03:24:07.884Z,3.70
2022-09-26T03:26:37.354Z,3.63
2022-09-26T03:29:06.030Z,3.85
2022-09-26T03:31:35.159Z,3.65
2022-09-26T03:34:03.951Z,4.30
2022-09-26T03:36:33.288Z,4.70
2022-09-26T03:39:03.467Z,3.53
2022-09-26T03:41:31.955Z,4.15
2022-09-26T03:44:00.564Z,3.95
2022-09-26T03:46:29.052Z,5.15
2022-09-26T03:48:58.347Z,4.40
2022-09-26T03:51:27.951Z,3.97
2022-09-26T03:53:57.271Z,3.83
2022-09-26T03:56:27.676Z,3.80
2022-09-26T03:58:56.261Z,4.20
2022-09-26T04:01:24.898Z,3.72
2022-09-26T04:03:53.544Z,3.75
2022-09-26T04:06:22.061Z,3.88
2022-09-26T04:08:52.504Z,4.38
2022-09-26T04:11:22.960Z,3.30
2022-09-26T04:13:54.184Z,4.25
2022-09-26T04:16:24.395Z,3.85
2022-09-26T04:18:57.419Z,3.90
2022-09-26T04:21:27.271Z,4.20
2022-09-26T04:23:56.126Z,3.70
2022-09-26T04:26:25.171Z,3.80
2022-09-26T04:28:57.936Z,3.78
2022-09-26T04:31:27.821Z,3.85
2022-09-26T04:33:56.579Z,4.03
2022-09-26T04:36:25.160Z,4.32
2022-09-26T04:38:53.807Z,4.15
2022-09-26T04:41:23.836Z,3.80
2022-09-26T04:43:56.475Z,4.30
2022-09-26T04:46:30.674Z,4.20
2022-09-26T04:49:01.097Z,4.88
2022-09-26T04:51:31.328Z,4.80
2022-09-26T04:54:00.199Z,4.57
2022-09-26T04:56:30.404Z,4.07
2022-09-26T04:59:01.015Z,4.55
2022-09-26T05:01:30.013Z,4.68
2022-09-26T05:03:58.982Z,4.68
2022-09-26T05:06:27.492Z,4.70
2022-09-26T05:08:56.176Z,5.50
2022-09-26T05:11:25.142Z,4.88
2022-09-26T05:13:54.193Z,4.90
2022-09-26T05:16:24.339Z,5.07
2022-09-26T05:18:53.359Z,4.60
2022-09-26T05:21:21.952Z,5.13
2022-09-26T05:24:08.667Z,4.93
2022-09-26T05:26:43.757Z,4.20
2022-09-26T05:29:12.718Z,5.20
2022-09-26T05:31:43.534Z,5.03
2022-09-26T05:34:19.209Z,5.13
2022-09-26T05:36:48.678Z,4.40
2022-09-26T05:39:37.866Z,5.50
2022-09-26T05:42:10.284Z,5.22
2022-09-26T05:44:39.842Z,5.22
2022-09-26T05:47:09.924Z,4.78
2022-09-26T05:49:38.530Z,5.15
2022-09-26T05:52:07.067Z,4.95
2022-09-26T05:54:35.605Z,5.15
2022-09-26T05:57:04.140Z,5.05
2022-09-26T05:59:32.673Z,4.78
2022-09-26T06:02:01.337Z,5.20
2022-09-26T06:04:31.698Z,5.60
2022-09-26T06:07:00.303Z,5.22
2022-09-26T06:09:29.171Z,5.53
2022-09-26T06:11:57.659Z,5.50
2022-09-26T06:14:26.404Z,5.18
2022-09-26T06:16:55.022Z,5.80
2022-09-26T06:19:23.850Z,5.90
2022-09-26T06:21:53.848Z,5.90
2022-09-26T06:24:23.001Z,5.40
2022-09-26T06:26:51.510Z,5.60
2022-09-26T06:29:20.085Z,5.90
2022-09-26T06:31:48.735Z,5.68
2022-09-26T06:34:17.317Z,5.13
2022-09-26T06:36:47.107Z,5.13
2022-09-26T06:39:17.238Z,5.32
2022-09-26T06:41:45.788Z,5.13
2022-09-26T06:44:14.424Z,4.90
2022-09-26T06:46:43.137Z,5.50
2022-09-26T06:49:11.867Z,5.60
2022-09-26T06:51:40.552Z,5.80
2022-09-26T06:54:10.224Z,6.20
2022-09-26T06:56:40.211Z,6.22
2022-09-26T06:59:08.786Z,6.50
2022-09-26T07:01:37.741Z,5.70
2022-09-26T07:04:07.033Z,6.00
2022-09-26T07:06:36.624Z,5.53
2022-09-26T07:09:09.782Z,5.25
2022-09-26T07:12:12.863Z,5.93
2022-09-26T07:14:36.054Z,5.95
2022-09-26T07:17:04.862Z,5.88
2022-09-26T07:19:33.448Z,6.40
2022-09-26T07:22:01.985Z,6.55
2022-09-26T07:24:30.562Z,6.47
2022-09-26T07:27:01.301Z,7.00
2022-09-26T07:29:29.982Z,7.22
2022-09-26T07:32:00.096Z,7.53
2022-09-26T07:34:29.858Z,6.80
2022-09-26T07:36:59.605Z,7.28
2022-09-26T07:39:28.223Z,6.88
2022-09-26T07:41:56.880Z,6.82
2022-09-26T07:45:36.584Z,6.57
2022-09-26T07:47:33.133Z,6.30
2022-09-26T07:50:15.080Z,5.72
2022-09-26T07:52:45.602Z,5.80
2022-09-26T07:55:16.600Z,5.55
2022-09-26T07:57:46.570Z,4.93
2022-09-26T08:00:19.582Z,5.25
2022-09-26T08:02:48.857Z,4.93
2022-09-26T08:05:20.315Z,4.68
2022-09-26T08:07:49.868Z,4.45
2022-09-26T08:10:21.249Z,4.40
2022-09-26T08:12:50.214Z,4.10
2022-09-26T08:15:20.612Z,3.40
2022-09-26T08:17:49.115Z,3.75
2022-09-26T08:20:17.776Z,3.40
2022-09-26T08:22:46.310Z,3.63
2022-09-26T08:25:14.792Z,3.80
2022-09-26T08:27:44.121Z,3.80
2022-09-26T08:30:13.643Z,3.80
2022-09-26T08:32:44.528Z,4.60
2022-09-26T08:35:14.949Z,4.50
2022-09-26T08:37:43.515Z,3.78
2022-09-26T08:40:12.482Z,4.38
2022-09-26T08:42:55.321Z,4.65
2022-09-26T08:45:56.500Z,3.60
2022-09-26T08:48:44.356Z,3.97
2022-09-26T08:51:28.280Z,3.33
2022-09-26T08:54:06.769Z,3.78
2022-09-26T08:56:40.372Z,4.00
2022-09-26T08:59:19.739Z,3.83
2022-09-26T09:01:51.851Z,3.15
2022-09-26T09:04:26.227Z,2.90
2022-09-26T09:07:03.352Z,3.00
2022-09-26T09:09:31.983Z,3.40
2022-09-26T09:12:11.285Z,3.20
2022-09-26T09:15:23.647Z,2.47
2022-09-26T09:17:55.567Z,2.95
2022-09-26T09:20:39.023Z,2.70
2022-09-26T09:23:24.619Z,3.58
2022-09-26T09:29:20.445Z,3.20
2022-09-26T09:31:49.959Z,3.05
2022-09-26T09:34:25.357Z,2.38
2022-09-26T09:36:58.917Z,2.40
2022-09-26T09:39:32.510Z,2.60
2022-09-26T09:42:07.241Z,2.35
2022-09-26T09:44:46.753Z,2.22
2022-09-26T09:47:17.389Z,2.20
2022-09-26T09:49:49.284Z,1.95
2022-09-26T09:52:46.434Z,2.10
2022-09-26T09:55:26.668Z,1.90
2022-09-26T09:58:14.786Z,2.15
2022-09-26T10:00:51.350Z,1.95
2022-09-26T10:03:27.482Z,2.10
2022-09-26T10:06:00.758Z,2.25
2022-09-26T10:08:33.432Z,2.00
2022-09-26T10:11:13.280Z,2.03
2022-09-26T10:13:43.876Z,1.92
2022-09-26T10:16:15.319Z,2.53
2022-09-26T10:18:58.284Z,1.70
2022-09-26T10:21:39.566Z,2.38
2022-09-26T10:24:24.435Z,2.78
2022-09-26T10:26:53.220Z,5.50
2022-09-26T10:29:25.802Z,2.10
2022-09-26T10:31:57.567Z,1.90
2022-09-26T10:34:31.439Z,1.50
2022-09-26T10:37:21.514Z,1.80
2022-09-26T10:40:13.449Z,2.10
2022-09-26T10:42:43.264Z,2.33
2022-09-26T10:45:17.521Z,2.00
2022-09-26T10:50:19.412Z,2.28
2022-09-26T10:52:52.334Z,2.03
2022-09-26T10:55:26.699Z,1.92
2022-09-26T10:57:57.290Z,1.85
2022-09-26T11:00:39.003Z,1.85
2022-09-26T11:03:10.843Z,1.95
2022-09-26T11:06:00.428Z,1.77
2022-09-26T11:08:31.093Z,2.20
2022-09-26T11:11:04.140Z,1.70
2022-09-26T11:13:41.081Z,1.73
2022-09-26T11:16:11.800Z,2.08
2022-09-26T11:18:58.824Z,1.98
2022-09-26T11:21:37.755Z,2.38
2022-09-26T11:24:17.501Z,1.95
2022-09-26T11:27:01.459Z,2.08
2022-09-26T11:29:41.826Z,2.00
2022-09-26T11:32:17.600Z,2.22
2022-09-26T11:34:47.042Z,2.40
2022-09-26T11:37:30.609Z,2.15
2022-09-26T11:40:17.684Z,2.40
2022-09-26T11:43:03.147Z,1.85
2022-09-26T11:45:46.601Z,1.88
2022-09-26T11:48:37.594Z,2.00
2022-09-26T11:51:13.316Z,2.00
2022-09-26T11:54:13.405Z,2.22
2022-09-26T11:56:51.595Z,2.20
2022-09-26T12:00:00.580Z,1.95
2022-09-26T12:03:11.662Z,1.98
2022-09-26T12:05:50.408Z,1.88
2022-09-26T12:08:32.053Z,1.95
2022-09-26T12:11:09.921Z,1.70
2022-09-26T12:13:52.264Z,2.03
2022-09-26T12:16:27.519Z,2.40
2022-09-26T12:19:05.634Z,2.13
2022-09-26T12:22:08.247Z,2.35
2022-09-26T12:24:45.381Z,2.50
2022-09-26T12:27:25.766Z,2.40
2022-09-26T12:30:04.065Z,2.15
2022-09-26T12:33:04.384Z,1.98
2022-09-26T12:35:45.430Z,2.05
2022-09-26T12:38:56.478Z,5.35
2022-09-26T12:41:41.655Z,2.22
2022-09-26T12:44:34.741Z,2.05
2022-09-26T12:47:25.928Z,3.78
2022-09-26T12:50:19.193Z,2.35
2022-09-26T12:53:19.330Z,2.33
2022-09-26T12:55:57.241Z,2.00
2022-09-26T12:58:40.152Z,2.20
2022-09-26T13:01:23.740Z,2.00
2022-09-26T13:04:20.963Z,2.05
2022-09-26T13:07:18.818Z,2.20
2022-09-26T13:10:22.079Z,2.33
2022-09-26T13:13:23.300Z,2.20
2022-09-26T13:16:08.170Z,2.45
2022-09-26T13:18:44.885Z,2.25
2022-09-26T13:21:18.996Z,2.10
2022-09-26T13:23:55.037Z,2.20
2022-09-26T13:26:29.085Z,2.30
2022-09-26T13:29:17.243Z,2.20
2022-09-26T13:31:55.367Z,2.30
2022-09-26T13:34:31.244Z,2.35
2022-09-26T13:37:00.778Z,1.98
2022-09-26T13:39:42.051Z,2.40
2022-09-26T13:42:20.158Z,2.40
2022-09-26T13:45:00.506Z,2.00
2022-09-26T13:47:41.442Z,4.43
2022-09-26T13:50:23.400Z,2.10
2022-09-26T13:53:05.607Z,1.88
2022-09-26T13:55:37.019Z,2.28
2022-09-26T13:58:16.001Z,3.30
2022-09-26T14:00:54.792Z,2.42
2022-09-26T14:03:43.652Z,2.00
2022-09-26T14:06:33.076Z,2.60
2022-09-26T14:09:25.110Z,2.05
2022-09-26T14:12:20.273Z,2.20
2022-09-26T14:15:08.028Z,4.30
2022-09-26T14:18:10.198Z,2.58
2022-09-26T14:21:05.161Z,2.45
2022-09-26T14:23:51.084Z,2.42
2022-09-26T14:26:27.876Z,2.30
2022-09-26T14:29:26.158Z,1.70
2022-09-26T14:32:01.347Z,2.00
2022-09-26T14:34:41.962Z,2.10
2022-09-26T14:37:35.001Z,2.53
2022-09-26T14:40:17.542Z,2.90
2022-09-26T14:43:12.761Z,2.70
2022-09-26T14:45:54.525Z,2.85
2022-09-26T14:48:33.454Z,3.72
2022-09-26T14:51:05.136Z,2.50
2022-09-26T14:53:41.277Z,2.20
2022-09-26T14:56:13.308Z,2.17
2022-09-26T14:58:53.252Z,2.35
2022-09-26T15:01:28.019Z,2.20
2022-09-26T15:04:03.857Z,2.42
2022-09-26T15:06:43.552Z,2.13
2022-09-26T15:09:20.099Z,2.10
2022-09-26T15:11:53.159Z,2.58
2022-09-26T15:14:27.362Z,2.20
2022-09-26T15:19:34.451Z,1.92
2022-09-26T15:22:13.245Z,2.08
2022-09-26T15:24:42.064Z,2.08
2022-09-26T15:27:17.769Z,2.15
2022-09-26T15:29:49.309Z,2.35
2022-09-26T15:32:26.894Z,2.17
2022-09-26T15:34:58.725Z,2.25
2022-09-26T15:37:34.063Z,2.38
2022-09-26T15:40:17.815Z,2.42
2022-09-26T15:42:58.351Z,2.83
2022-09-26T15:45:35.179Z,2.40
2022-09-26T15:48:06.602Z,2.08
2022-09-26T15:50:43.349Z,2.45
2022-09-26T15:53:24.713Z,2.70
2022-09-26T15:59:19.378Z,2.60
2022-09-26T16:01:52.569Z,2.65
2022-09-26T16:04:25.703Z,3.17
2022-09-26T16:07:01.129Z,5.30
2022-09-26T16:09:37.506Z,3.33
2022-09-26T16:12:12.929Z,2.50
2022-09-26T16:14:48.590Z,2.67
2022-09-26T16:17:24.626Z,3.30
2022-09-26T16:19:57.611Z,3.42
2022-09-26T16:22:45.422Z,3.17
2022-09-26T16:25:29.742Z,3.13
2022-09-26T16:28:32.201Z,2.97
2022-09-26T16:31:15.719Z,2.80
2022-09-26T16:33:52.289Z,4.18
2022-09-26T16:36:24.897Z,6.20
2022-09-26T16:38:56.889Z,3.85
2022-09-26T16:44:30.225Z,3.08
2022-09-26T16:47:03.710Z,2.78
2022-09-26T16:49:45.749Z,5.90
2022-09-26T16:52:27.480Z,3.30
2022-09-26T16:54:57.063Z,3.50
2022-09-26T16:57:28.987Z,3.45
2022-09-26T17:00:23.084Z,2.85
2022-09-26T17:02:51.991Z,6.00
2022-09-26T17:05:22.646Z,3.95
2022-09-26T17:07:52.706Z,3.28
2022-09-26T17:10:24.086Z,3.20
2022-09-26T17:12:53.351Z,3.90
2022-09-26T17:15:28.413Z,3.78
2022-09-26T17:17:58.406Z,4.60
2022-09-26T17:20:30.254Z,5.18
2022-09-26T17:23:16.897Z,4.60
2022-09-26T17:25:55.377Z,4.68
2022-09-26T17:28:32.434Z,5.38
2022-09-26T17:31:06.450Z,4.05
2022-09-26T17:33:37.965Z,3.70
2022-09-26T17:36:10.783Z,3.92
2022-09-26T17:38:41.326Z,4.00
2022-09-26T17:41:12.546Z,4.10
2022-09-26T17:43:41.328Z,4.55
2022-09-26T17:46:15.522Z,5.35
2022-09-26T17:48:45.327Z,5.22
2022-09-26T17:51:14.593Z,4.72
2022-09-26T17:53:50.407Z,3.38
2022-09-26T17:56:19.816Z,3.78
2022-09-26T17:58:51.918Z,3.88
2022-09-26T18:01:24.290Z,3.65
2022-09-26T18:03:56.984Z,4.18
2022-09-26T18:06:29.135Z,3.85
2022-09-26T18:09:01.996Z,4.00
2022-09-26T18:11:34.655Z,4.63
2022-09-26T18:14:05.836Z,4.35
2022-09-26T18:16:34.594Z,5.70
2022-09-26T18:19:07.053Z,4.38
2022-09-26T18:21:38.778Z,5.55
2022-09-26T18:24:19.662Z,5.35
2022-09-26T18:26:50.927Z,11.70
2022-09-26T18:29:27.516Z,11.27
2022-09-26T18:31:56.918Z,4.68
2022-09-26T18:34:26.013Z,9.85
2022-09-26T18:36:57.257Z,4.63
2022-09-26T18:39:27.629Z,9.68
2022-09-26T18:42:00.952Z,4.13
2022-09-26T18:44:35.175Z,4.50
2022-09-26T18:47:05.999Z,3.72
2022-09-26T18:49:36.955Z,3.90
2022-09-26T18:52:05.741Z,3.90
2022-09-26T18:54:35.937Z,3.78
2022-09-26T18:57:22.368Z,7.72
2022-09-26T18:59:51.102Z,6.40
2022-09-26T19:02:24.476Z,4.38
2022-09-26T19:04:59.208Z,5.10
2022-09-26T19:09:58.861Z,3.63
2022-09-26T19:12:29.256Z,3.60
2022-09-26T19:15:11.109Z,4.30
2022-09-26T19:17:42.484Z,4.07
2022-09-26T19:20:12.416Z,3.60
2022-09-26T19:22:56.007Z,3.45
2022-09-26T19:25:27.209Z,3.30
2022-09-26T19:27:56.109Z,4.18
2022-09-26T19:30:24.877Z,4.00
2022-09-26T19:32:57.013Z,4.55
2022-09-26T19:35:33.566Z,4.10
2022-09-26T19:38:32.613Z,4.72
2022-09-26T19:41:03.524Z,5.72
2022-09-26T19:43:32.380Z,5.47
2022-09-26T19:46:03.056Z,5.30
2022-09-26T19:48:38.715Z,5.60
2022-09-26T19:51:10.496Z,4.20
2022-09-26T19:53:39.761Z,3.90
2022-09-26T19:56:10.675Z,3.65
2022-09-26T19:58:39.497Z,4.20
2022-09-26T20:01:18.322Z,3.47
2022-09-26T20:03:48.112Z,3.30
2022-09-26T20:06:21.246Z,3.70
2022-09-26T20:08:51.852Z,3.50
2022-09-26T20:11:22.908Z,3.40
2022-09-26T20:14:09.614Z,2.97
2022-09-26T20:16:42.251Z,4.88
2022-09-26T20:19:17.637Z,3.63
2022-09-26T20:21:46.645Z,3.70
2022-09-26T20:24:19.010Z,4.85
2022-09-26T20:26:49.493Z,3.95
2022-09-26T20:29:18.884Z,4.78
2022-09-26T20:31:47.933Z,3.72
2022-09-26T20:34:17.854Z,3.38
2022-09-26T20:36:49.864Z,3.88
2022-09-26T20:39:24.720Z,3.22
2022-09-26T20:41:56.668Z,3.58
2022-09-26T20:44:29.840Z,3.40
2022-09-26T20:47:00.280Z,3.58
2022-09-26T20:49:32.790Z,3.40
2022-09-26T20:52:02.532Z,3.83
2022-09-26T20:54:33.507Z,3.08
2022-09-26T20:57:03.794Z,3.50
2022-09-26T20:59:35.068Z,3.33
2022-09-26T21:02:22.084Z,3.20
2022-09-26T21:04:53.021Z,3.10
2022-09-26T21:07:23.653Z,3.25
2022-09-26T21:09:52.581Z,3.50
2022-09-26T21:12:22.894Z,3.60
2022-09-26T21:14:51.902Z,3.00
2022-09-26T21:17:25.848Z,3.25
2022-09-26T21:20:05.561Z,2.78
2022-09-26T21:22:56.531Z,3.65
2022-09-26T21:25:34.389Z,3.15
2022-09-26T21:28:20.399Z,3.45
2022-09-26T21:30:49.594Z,3.15
2022-09-26T21:33:21.820Z,3.20
2022-09-26T21:35:51.295Z,3.30
2022-09-26T21:38:21.669Z,3.30
2022-09-26T21:40:54.181Z,3.40
2022-09-26T21:43:28.075Z,3.53
2022-09-26T21:45:56.862Z,3.50
2022-09-26T21:48:26.093Z,3.45
2022-09-26T21:50:58.701Z,4.03
2022-09-26T21:53:32.242Z,3.22
2022-09-26T21:56:09.245Z,2.80
2022-09-26T21:58:42.131Z,3.25
2022-09-26T22:01:11.050Z,3.25
2022-09-26T22:03:40.007Z,4.00
2022-09-26T22:06:10.572Z,3.10
2022-09-26T22:08:40.733Z,2.80
2022-09-26T22:11:10.343Z,2.75
2022-09-26T22:13:40.680Z,2.70
2022-09-26T22:16:11.347Z,3.33
2022-09-26T22:18:41.197Z,2.90
2022-09-26T22:21:11.888Z,2.92
2022-09-26T22:23:41.075Z,3.28
2022-09-26T22:26:10.042Z,2.58
2022-09-26T22:28:40.401Z,2.40
2022-09-26T22:31:09.296Z,2.78
2022-09-26T22:33:38.490Z,2.67
2022-09-26T22:36:07.827Z,2.80
2022-09-26T22:38:37.465Z,2.10
2022-09-26T22:41:08.336Z,2.70
2022-09-26T22:43:37.082Z,2.72
2022-09-26T22:46:09.463Z,2.55
2022-09-26T22:48:40.252Z,2.83
2022-09-26T22:51:10.133Z,2.63
2022-09-26T22:53:40.807Z,2.72
2022-09-26T22:56:12.950Z,2.92
2022-09-26T22:58:43.189Z,2.70
2022-09-26T23:01:15.475Z,2.88
2022-09-26T23:03:44.725Z,2.83
2022-09-26T23:06:13.619Z,2.85
2022-09-26T23:08:42.280Z,2.42
2022-09-26T23:11:12.629Z,2.95
2022-09-26T23:13:41.641Z,2.70
2022-09-26T23:16:13.828Z,2.88
2022-09-26T23:18:43.091Z,2.90
2022-09-26T23:21:14.225Z,3.13
2022-09-26T23:23:44.745Z,2.88
2022-09-26T23:26:19.386Z,2.60
2022-09-26T23:28:48.132Z,2.80
2022-09-26T23:31:18.847Z,2.83
2022-09-26T23:33:47.472Z,2.63
2022-09-26T23:36:16.834Z,2.90
2022-09-26T23:38:45.588Z,2.67
2022-09-26T23:41:15.269Z,2.55
2022-09-26T23:43:43.960Z,3.10
2022-09-26T23:46:12.639Z,2.60
2022-09-26T23:48:42.901Z,2.80
2022-09-26T23:51:11.660Z,2.70
2022-09-26T23:53:40.216Z,2.80
2022-09-26T23:56:11.557Z,2.85
2022-09-26T23:58:40.517Z,3.00
